createdAt,value
2023-11-11T00:01:11.969Z,4.18
2023-11-11T00:03:39.984Z,1.67
2023-11-11T00:06:08.930Z,2.30
2023-11-11T00:08:36.649Z,3.38
2023-11-11T00:11:06.221Z,2.88
2023-11-11T00:13:35.093Z,2.03
2023-11-11T00:16:04.770Z,1.77
2023-11-11T00:18:34.034Z,7.85
2023-11-11T00:21:02.016Z,1.48
2023-11-11T00:23:29.781Z,3.50
2023-11-11T00:25:57.587Z,1.55
2023-11-11T00:28:25.397Z,1.67
2023-11-11T00:30:53.441Z,1.95
2023-11-11T00:33:22.687Z,1.00
2023-11-11T00:35:50.402Z,2.03
2023-11-11T00:38:18.119Z,1.27
2023-11-11T00:40:45.861Z,1.98
2023-11-11T00:43:14.330Z,1.35
2023-11-11T00:45:42.127Z,2.78
2023-11-11T00:48:10.034Z,6.15
2023-11-11T00:50:39.272Z,3.42
2023-11-11T00:53:07.514Z,2.72
2023-11-11T00:55:36.191Z,1.42
2023-11-11T00:58:05.000Z,5.30
2023-11-11T01:00:32.957Z,3.83
2023-11-11T01:03:00.707Z,2.50
2023-11-11T01:05:28.548Z,2.10
2023-11-11T01:07:57.769Z,1.35
2023-11-11T01:10:26.189Z,1.85
2023-11-11T01:12:55.114Z,1.23
2023-11-11T01:15:23.020Z,2.83
2023-11-11T01:17:50.938Z,2.03
2023-11-11T01:20:18.797Z,0.93
2023-11-11T01:22:46.721Z,1.90
2023-11-11T01:25:15.936Z,1.33
2023-11-11T01:27:43.770Z,1.30
2023-11-11T01:30:13.782Z,2.55
2023-11-11T01:32:41.833Z,1.38
2023-11-11T01:35:10.198Z,2.53
2023-11-11T01:37:37.917Z,3.08
2023-11-11T01:40:08.102Z,2.08
2023-11-11T01:42:37.365Z,2.38
2023-11-11T01:45:06.085Z,3.25
2023-11-11T01:47:34.502Z,1.55
2023-11-11T01:50:02.636Z,1.92
2023-11-11T01:52:31.043Z,8.30
2023-11-11T01:54:59.301Z,3.55
2023-11-11T01:57:28.327Z,2.38
2023-11-11T01:59:59.467Z,2.17
2023-11-11T02:02:27.519Z,2.85
2023-11-11T02:04:55.546Z,2.95
2023-11-11T02:07:23.461Z,1.50
2023-11-11T02:09:51.412Z,4.78
2023-11-11T02:12:21.768Z,4.38
2023-11-11T02:14:49.982Z,2.13
2023-11-11T02:17:19.866Z,2.35
2023-11-11T02:19:47.812Z,4.22
2023-11-11T02:22:17.975Z,4.05
2023-11-11T02:24:50.161Z,3.42
2023-11-11T02:27:18.228Z,2.22
2023-11-11T02:29:46.594Z,2.17
2023-11-11T02:32:14.644Z,2.50
2023-11-11T02:34:42.692Z,3.70
2023-11-11T02:37:10.683Z,2.15
2023-11-11T02:39:38.500Z,2.50
2023-11-11T02:42:08.258Z,2.00
2023-11-11T02:44:36.136Z,2.53
2023-11-11T02:47:04.009Z,1.60
2023-11-11T02:49:32.043Z,2.38
2023-11-11T02:51:59.786Z,2.17
2023-11-11T02:54:28.243Z,3.05
2023-11-11T02:56:55.976Z,3.60
2023-11-11T02:59:25.231Z,3.53
2023-11-11T03:01:53.246Z,3.22
2023-11-11T03:04:22.597Z,5.82
2023-11-11T03:06:50.661Z,4.43
2023-11-11T03:09:19.509Z,2.22
2023-11-11T03:11:47.600Z,3.10
2023-11-11T03:14:16.850Z,3.00
2023-11-11T03:16:46.125Z,5.65
2023-11-11T03:19:14.011Z,2.13
2023-11-11T03:21:41.971Z,1.50
2023-11-11T03:24:10.528Z,1.70
2023-11-11T03:26:38.319Z,2.03
2023-11-11T03:29:06.171Z,2.75
2023-11-11T03:31:34.200Z,4.10
2023-11-11T03:34:03.365Z,3.05
2023-11-11T03:36:31.425Z,2.97
2023-11-11T03:38:59.165Z,3.70
2023-11-11T03:41:26.824Z,3.22
2023-11-11T03:43:55.126Z,4.82
2023-11-11T03:46:22.909Z,3.33
2023-11-11T03:48:50.895Z,3.58
2023-11-11T03:51:20.218Z,2.47
2023-11-11T03:53:48.017Z,2.67
2023-11-11T03:56:15.849Z,2.05
2023-11-11T03:58:43.558Z,1.35
2023-11-11T04:01:11.906Z,3.00
2023-11-11T04:03:41.373Z,3.22
2023-11-11T04:06:10.952Z,2.45
2023-11-11T04:08:41.326Z,4.32
2023-11-11T04:11:09.694Z,2.75
2023-11-11T04:13:39.849Z,1.38
2023-11-11T04:16:09.547Z,2.00
2023-11-11T04:18:37.795Z,2.80
2023-11-11T04:21:06.629Z,1.40
2023-11-11T04:23:35.343Z,1.35
2023-11-11T04:26:05.016Z,0.98
2023-11-11T04:28:32.839Z,1.08
2023-11-11T04:31:00.834Z,2.08
2023-11-11T04:33:29.783Z,1.48
2023-11-11T04:35:57.968Z,0.63
2023-11-11T04:38:28.267Z,1.25
2023-11-11T04:40:58.217Z,1.40
2023-11-11T04:43:28.472Z,0.73
2023-11-11T04:45:56.289Z,2.20
2023-11-11T04:48:24.133Z,1.90
2023-11-11T04:50:52.606Z,0.80
2023-11-11T04:53:20.739Z,2.22
2023-11-11T04:55:49.610Z,2.20
2023-11-11T04:58:18.453Z,1.13
2023-11-11T05:00:48.329Z,2.20
2023-11-11T05:03:18.859Z,1.90
2023-11-11T05:05:46.824Z,2.30
2023-11-11T05:08:14.785Z,1.65
2023-11-11T05:10:42.817Z,2.08
2023-11-11T05:13:10.589Z,2.53
2023-11-11T05:15:43.809Z,1.52
2023-11-11T05:18:13.804Z,0.70
2023-11-11T05:20:41.614Z,1.13
2023-11-11T05:23:11.247Z,1.08
2023-11-11T05:25:39.520Z,1.85
2023-11-11T05:28:08.569Z,1.30
2023-11-11T05:30:36.695Z,0.75
2023-11-11T05:33:06.389Z,0.75
2023-11-11T05:35:35.782Z,0.75
2023-11-11T05:38:03.735Z,1.90
2023-11-11T05:40:31.687Z,0.77
2023-11-11T05:43:01.440Z,0.80
2023-11-11T05:45:29.855Z,0.60
2023-11-11T05:47:57.913Z,0.75
2023-11-11T05:50:25.641Z,0.57
2023-11-11T05:52:54.692Z,0.55
2023-11-11T05:55:22.803Z,1.85
2023-11-11T05:57:51.507Z,1.02
2023-11-11T06:00:19.740Z,0.52
2023-11-11T06:02:47.468Z,0.65
2023-11-11T06:05:15.699Z,1.13
2023-11-11T06:07:43.535Z,0.95
2023-11-11T06:10:13.732Z,1.17
2023-11-11T06:12:41.773Z,1.05
2023-11-11T06:15:10.569Z,0.70
2023-11-11T06:17:38.591Z,0.77
2023-11-11T06:20:07.737Z,1.23
2023-11-11T06:22:35.581Z,0.50
2023-11-11T06:25:03.390Z,0.85
2023-11-11T06:27:32.599Z,0.85
2023-11-11T06:30:00.951Z,1.27
2023-11-11T06:32:28.922Z,0.88
2023-11-11T06:34:57.160Z,1.10
2023-11-11T06:37:26.559Z,1.05
2023-11-11T06:39:54.531Z,3.08
2023-11-11T06:42:22.384Z,0.93
2023-11-11T06:44:51.788Z,2.15
2023-11-11T06:47:19.969Z,4.18
2023-11-11T06:49:48.023Z,4.93
2023-11-11T06:52:16.002Z,2.45
2023-11-11T06:54:45.016Z,3.38
2023-11-11T06:57:13.219Z,4.30
2023-11-11T06:59:40.964Z,4.45
2023-11-11T07:02:13.836Z,3.45
2023-11-11T07:04:41.993Z,4.65
2023-11-11T07:07:13.222Z,4.55
2023-11-11T07:09:42.772Z,5.20
2023-11-11T07:12:14.180Z,4.18
2023-11-11T07:14:41.998Z,4.00
2023-11-11T07:17:11.368Z,6.32
2023-11-11T07:19:39.159Z,7.13
2023-11-11T07:24:38.606Z,6.18
2023-11-11T07:27:07.105Z,6.68
2023-11-11T07:29:34.925Z,8.02
2023-11-11T07:32:02.791Z,7.90
2023-11-11T07:34:32.692Z,7.45
2023-11-11T07:37:00.910Z,7.55
2023-11-11T07:39:28.730Z,8.27
2023-11-11T07:41:56.660Z,9.05
2023-11-11T07:44:25.718Z,7.38
2023-11-11T07:46:53.592Z,6.00
2023-11-11T07:49:21.558Z,7.93
2023-11-11T07:51:51.211Z,7.10
2023-11-11T07:54:18.958Z,7.80
2023-11-11T07:56:47.025Z,9.90
2023-11-11T07:59:14.911Z,5.50
2023-11-11T08:01:43.100Z,5.57
2023-11-11T08:04:11.974Z,7.15
2023-11-11T08:06:39.877Z,5.50
2023-11-11T08:09:11.052Z,5.57
2023-11-11T08:11:39.631Z,4.78
2023-11-11T08:14:07.543Z,5.97
2023-11-11T08:16:35.653Z,4.90
2023-11-11T08:19:05.422Z,5.22
2023-11-11T08:21:34.219Z,4.07
2023-11-11T08:24:02.088Z,4.53
2023-11-11T08:26:31.384Z,4.07
2023-11-11T08:28:59.934Z,5.43
2023-11-11T08:31:28.043Z,4.55
2023-11-11T08:33:56.147Z,9.82
2023-11-11T08:36:25.526Z,6.30
2023-11-11T08:38:53.848Z,3.85
2023-11-11T08:41:21.673Z,3.75
2023-11-11T08:43:51.253Z,3.72
2023-11-11T08:46:19.220Z,3.47
2023-11-11T08:48:47.353Z,3.50
2023-11-11T08:51:15.376Z,5.60
2023-11-11T08:53:43.302Z,3.10
2023-11-11T08:56:11.116Z,3.92
2023-11-11T08:58:38.933Z,4.20
2023-11-11T09:01:08.176Z,3.30
2023-11-11T09:03:36.960Z,3.50
2023-11-11T09:06:06.631Z,3.47
2023-11-11T09:08:34.382Z,3.10
2023-11-11T09:11:02.295Z,3.03
2023-11-11T09:13:30.362Z,1.55
2023-11-11T09:15:58.323Z,4.50
2023-11-11T09:18:27.670Z,5.05
2023-11-11T09:20:56.678Z,4.53
2023-11-11T09:23:24.473Z,8.05
2023-11-11T09:25:52.211Z,2.60
2023-11-11T09:28:20.383Z,2.42
2023-11-11T09:30:48.399Z,6.03
2023-11-11T09:33:17.836Z,2.88
2023-11-11T09:35:47.637Z,3.83
2023-11-11T09:38:15.721Z,1.88
2023-11-11T09:40:43.674Z,2.45
2023-11-11T09:43:12.331Z,2.63
2023-11-11T09:45:40.322Z,2.65
2023-11-11T09:48:08.973Z,3.95
2023-11-11T09:50:37.997Z,2.45
2023-11-11T09:53:07.983Z,2.33
2023-11-11T09:55:37.869Z,1.95
2023-11-11T09:58:06.987Z,3.38
2023-11-11T10:00:35.034Z,2.75
2023-11-11T10:03:03.172Z,2.47
2023-11-11T10:05:31.804Z,7.07
2023-11-11T10:07:59.629Z,6.35
2023-11-11T10:10:28.832Z,5.47
2023-11-11T10:12:58.203Z,4.93
2023-11-11T10:15:25.992Z,3.67
2023-11-11T10:17:53.947Z,2.47
2023-11-11T10:20:21.832Z,1.95
2023-11-11T10:22:51.054Z,3.45
2023-11-11T10:25:21.041Z,2.65
2023-11-11T10:27:51.646Z,4.18
2023-11-11T10:30:21.809Z,3.28
2023-11-11T10:32:53.240Z,2.85
2023-11-11T10:35:22.135Z,4.20
2023-11-11T10:37:52.095Z,3.30
2023-11-11T10:40:21.230Z,3.67
2023-11-11T10:42:51.524Z,2.88
2023-11-11T10:45:19.295Z,5.20
2023-11-11T10:47:48.171Z,2.35
2023-11-11T10:50:16.982Z,3.35
2023-11-11T10:52:45.479Z,2.88
2023-11-11T10:55:13.917Z,3.53
2023-11-11T10:57:43.635Z,6.05
2023-11-11T11:00:21.880Z,2.17
2023-11-11T11:02:54.013Z,3.80
2023-11-11T11:05:29.727Z,3.22
2023-11-11T11:08:12.184Z,2.92
2023-11-11T11:10:51.743Z,2.17
2023-11-11T11:13:20.223Z,2.58
2023-11-11T11:15:49.809Z,4.55
2023-11-11T11:18:24.691Z,3.97
2023-11-11T11:20:54.955Z,5.82
2023-11-11T11:23:23.646Z,4.78
2023-11-11T11:25:53.101Z,5.93
2023-11-11T11:28:23.779Z,2.72
2023-11-11T11:30:56.019Z,5.93
2023-11-11T11:33:27.425Z,2.55
2023-11-11T11:35:57.649Z,3.28
2023-11-11T11:38:29.404Z,2.75
2023-11-11T11:41:02.983Z,3.58
2023-11-11T11:43:31.976Z,6.25
2023-11-11T11:46:01.512Z,2.97
2023-11-11T11:48:31.900Z,4.55
2023-11-11T11:51:08.366Z,3.33
2023-11-11T11:53:36.805Z,2.33
2023-11-11T11:56:05.413Z,1.77
2023-11-11T11:58:46.321Z,4.45
2023-11-11T12:01:24.157Z,3.65
2023-11-11T12:03:52.577Z,3.20
2023-11-11T12:06:21.036Z,3.47
2023-11-11T12:08:50.252Z,2.33
2023-11-11T12:11:24.929Z,2.60
2023-11-11T12:13:53.061Z,5.20
2023-11-11T12:16:21.081Z,1.33
2023-11-11T12:18:50.145Z,1.25
2023-11-11T12:21:19.769Z,1.23
2023-11-11T12:23:47.710Z,3.33
2023-11-11T12:26:16.422Z,4.10
2023-11-11T12:28:45.315Z,2.90
2023-11-11T12:31:13.085Z,3.42
2023-11-11T12:33:42.611Z,3.03
2023-11-11T12:36:12.069Z,1.80
2023-11-11T12:38:40.101Z,2.33
2023-11-11T12:41:12.953Z,3.08
2023-11-11T12:43:40.756Z,2.60
2023-11-11T12:46:15.010Z,2.25
2023-11-11T12:48:42.861Z,2.05
2023-11-11T12:51:29.687Z,1.33
2023-11-11T12:53:58.109Z,1.40
2023-11-11T12:56:26.083Z,0.82
2023-11-11T12:59:06.354Z,0.40
2023-11-11T13:01:35.102Z,1.08
2023-11-11T13:04:04.797Z,1.52
2023-11-11T13:06:35.555Z,0.77
2023-11-11T13:09:05.643Z,3.00
2023-11-11T13:11:36.067Z,1.83
2023-11-11T13:14:05.062Z,0.93
2023-11-11T13:16:33.570Z,0.88
2023-11-11T13:19:02.645Z,0.73
2023-11-11T13:21:31.024Z,2.03
2023-11-11T13:24:00.821Z,0.68
2023-11-11T13:26:29.085Z,1.08
2023-11-11T13:28:56.818Z,3.60
2023-11-11T13:31:25.861Z,0.47
2023-11-11T13:33:54.219Z,0.50
2023-11-11T13:36:26.332Z,2.10
2023-11-11T13:38:54.404Z,2.83
2023-11-11T13:41:27.610Z,1.10
2023-11-11T13:43:57.020Z,1.90
2023-11-11T13:46:27.204Z,3.55
2023-11-11T13:48:56.539Z,2.30
2023-11-11T13:51:25.045Z,2.33
2023-11-11T13:53:56.416Z,1.98
2023-11-11T13:56:26.116Z,1.35
2023-11-11T13:58:56.308Z,5.85
2023-11-11T14:01:25.813Z,2.60
2023-11-11T14:03:54.967Z,1.83
2023-11-11T14:06:24.231Z,1.70
2023-11-11T14:08:55.928Z,1.02
2023-11-11T14:11:26.908Z,1.02
2023-11-11T14:13:54.814Z,1.00
2023-11-11T14:16:24.744Z,0.88
2023-11-11T14:18:52.680Z,1.30
2023-11-11T14:21:20.773Z,1.42
2023-11-11T14:23:48.496Z,0.80
2023-11-11T14:26:16.321Z,2.70
2023-11-11T14:28:45.658Z,3.28
2023-11-11T14:31:16.087Z,1.92
2023-11-11T14:33:54.535Z,2.72
2023-11-11T14:36:29.280Z,1.02
2023-11-11T14:38:57.136Z,6.28
2023-11-11T14:41:25.905Z,1.65
2023-11-11T14:43:55.624Z,3.33
2023-11-11T14:46:24.423Z,2.40
2023-11-11T14:48:52.186Z,1.42
2023-11-11T14:51:20.275Z,2.45
2023-11-11T14:53:48.156Z,2.38
2023-11-11T14:56:15.921Z,3.30
2023-11-11T14:58:44.287Z,2.70
2023-11-11T15:01:15.150Z,6.82
2023-11-11T15:03:43.120Z,5.60
2023-11-11T15:06:11.688Z,4.20
2023-11-11T15:08:42.408Z,2.95
2023-11-11T15:11:11.978Z,2.28
2023-11-11T15:13:41.038Z,3.15
2023-11-11T15:16:11.282Z,1.75
2023-11-11T15:18:40.457Z,1.70
2023-11-11T15:21:09.019Z,2.28
2023-11-11T15:23:37.312Z,2.10
2023-11-11T15:26:07.042Z,1.63
2023-11-11T15:28:34.950Z,2.92
2023-11-11T15:31:03.550Z,0.98
2023-11-11T15:33:31.453Z,1.50
2023-11-11T15:36:00.537Z,3.40
2023-11-11T15:38:28.940Z,3.40
2023-11-11T15:40:57.849Z,1.23
2023-11-11T15:43:25.895Z,0.90
2023-11-11T15:45:54.355Z,1.67
2023-11-11T15:48:22.294Z,1.02
2023-11-11T15:50:50.033Z,2.25
2023-11-11T15:53:19.579Z,4.43
2023-11-11T15:55:49.015Z,4.30
2023-11-11T15:58:17.918Z,5.82
2023-11-11T16:00:46.001Z,6.13
2023-11-11T16:03:13.863Z,4.50
2023-11-11T16:05:41.908Z,3.08
2023-11-11T16:08:09.953Z,6.53
2023-11-11T16:10:39.199Z,4.13
2023-11-11T16:13:06.902Z,5.57
2023-11-11T16:15:34.661Z,4.60
2023-11-11T16:18:03.611Z,3.40
2023-11-11T16:20:31.978Z,1.48
2023-11-11T16:23:00.359Z,2.67
2023-11-11T16:25:29.101Z,1.63
2023-11-11T16:27:58.816Z,3.45
2023-11-11T16:30:26.801Z,4.20
2023-11-11T16:32:54.533Z,4.30
2023-11-11T16:35:22.344Z,4.90
2023-11-11T16:37:50.146Z,2.97
2023-11-11T16:40:18.708Z,3.65
2023-11-11T16:42:46.552Z,3.13
2023-11-11T16:45:15.621Z,2.85
2023-11-11T16:47:43.404Z,3.50
2023-11-11T16:50:14.017Z,3.95
2023-11-11T16:52:41.859Z,6.47
2023-11-11T16:55:11.796Z,4.78
2023-11-11T16:57:39.531Z,4.28
2023-11-11T17:00:09.908Z,4.43
2023-11-11T17:02:39.640Z,6.15
2023-11-11T17:05:08.137Z,2.47
2023-11-11T17:07:37.198Z,3.33
2023-11-11T17:10:06.888Z,5.88
2023-11-11T17:12:35.191Z,5.55
2023-11-11T17:15:03.593Z,3.08
2023-11-11T17:17:31.539Z,3.28
2023-11-11T17:20:01.404Z,3.40
2023-11-11T17:22:29.190Z,2.22
2023-11-11T17:24:57.010Z,5.38
2023-11-11T17:27:25.241Z,2.33
2023-11-11T17:29:55.297Z,3.17
2023-11-11T17:32:23.644Z,2.50
2023-11-11T17:34:51.667Z,4.57
2023-11-11T17:37:21.591Z,3.63
2023-11-11T17:39:49.350Z,7.30
2023-11-11T17:42:17.105Z,5.03
2023-11-11T17:44:44.876Z,5.65
2023-11-11T17:47:12.758Z,4.53
2023-11-11T17:49:40.614Z,4.78
2023-11-11T17:52:09.899Z,3.45
2023-11-11T17:54:40.052Z,3.88
2023-11-11T17:57:07.888Z,3.45
2023-11-11T17:59:35.767Z,7.00
2023-11-11T18:02:04.559Z,3.88
2023-11-11T18:04:32.618Z,3.88
2023-11-11T18:07:00.406Z,3.28
2023-11-11T18:09:28.175Z,3.88
2023-11-11T18:11:57.266Z,3.38
2023-11-11T18:14:25.033Z,5.03
2023-11-11T18:16:52.962Z,3.92
2023-11-11T18:19:20.763Z,5.43
2023-11-11T18:21:48.509Z,4.50
2023-11-11T18:24:16.275Z,7.18
2023-11-11T18:26:44.096Z,7.47
2023-11-11T18:29:13.316Z,7.32
2023-11-11T18:31:41.050Z,8.20
2023-11-11T18:34:08.781Z,8.10
2023-11-11T18:36:36.476Z,7.75
2023-11-11T18:39:04.637Z,6.03
2023-11-11T18:41:33.025Z,7.20
2023-11-11T18:44:00.768Z,8.73
2023-11-11T18:46:29.871Z,6.28
2023-11-11T18:48:57.733Z,7.68
2023-11-11T18:51:26.349Z,9.13
2023-11-11T18:53:54.353Z,6.78
2023-11-11T18:56:22.200Z,7.63
2023-11-11T18:58:50.496Z,6.05
2023-11-11T19:01:18.440Z,6.05
2023-11-11T19:03:47.642Z,8.02
2023-11-11T19:06:15.469Z,6.90
2023-11-11T19:08:43.296Z,7.03
2023-11-11T19:11:11.400Z,5.38
2023-11-11T19:13:39.316Z,5.10
2023-11-11T19:16:08.467Z,5.40
2023-11-11T19:18:37.236Z,5.78
2023-11-11T19:21:06.729Z,6.10
2023-11-11T19:23:35.528Z,7.80
2023-11-11T19:26:06.953Z,5.93
2023-11-11T19:28:35.256Z,5.15
2023-11-11T19:31:04.443Z,4.75
2023-11-11T19:33:32.667Z,3.92
2023-11-11T19:36:03.321Z,4.63
2023-11-11T19:38:32.440Z,4.80
2023-11-11T19:41:00.535Z,5.25
2023-11-11T19:43:28.708Z,5.97
2023-11-11T19:45:56.709Z,3.42
2023-11-11T19:48:24.479Z,4.60
2023-11-11T19:50:54.240Z,4.70
2023-11-11T19:53:23.907Z,4.97
2023-11-11T19:55:54.261Z,3.92
2023-11-11T19:58:22.720Z,3.13
2023-11-11T20:00:51.015Z,3.88
2023-11-11T20:03:18.852Z,3.33
2023-11-11T20:05:47.328Z,6.22
2023-11-11T20:08:15.446Z,2.67
2023-11-11T20:10:43.307Z,4.43
2023-11-11T20:13:12.521Z,4.00
2023-11-11T20:15:42.234Z,3.72
2023-11-11T20:18:10.583Z,4.75
2023-11-11T20:20:38.977Z,3.88
2023-11-11T20:23:06.971Z,5.32
2023-11-11T20:25:35.026Z,4.97
2023-11-11T20:28:03.396Z,3.50
2023-11-11T20:30:34.786Z,4.18
2023-11-11T20:33:05.422Z,3.70
2023-11-11T20:35:33.413Z,4.88
2023-11-11T20:38:01.970Z,6.43
2023-11-11T20:40:30.081Z,5.20
2023-11-11T20:42:58.767Z,7.95
2023-11-11T20:45:26.950Z,4.70
2023-11-11T20:47:58.702Z,3.83
2023-11-11T20:50:27.197Z,3.95
2023-11-11T20:52:55.480Z,6.38
2023-11-11T20:55:23.933Z,4.63
2023-11-11T20:57:52.532Z,5.75
2023-11-11T21:00:21.545Z,3.70
2023-11-11T21:02:50.267Z,4.55
2023-11-11T21:05:20.240Z,5.15
2023-11-11T21:07:48.691Z,5.22
2023-11-11T21:10:17.331Z,5.70
2023-11-11T21:12:48.585Z,5.63
2023-11-11T21:15:18.721Z,4.57
2023-11-11T21:17:47.418Z,6.47
2023-11-11T21:20:16.625Z,4.75
2023-11-11T21:22:49.079Z,3.60
2023-11-11T21:25:17.061Z,6.03
2023-11-11T21:27:45.153Z,4.32
2023-11-11T21:30:14.614Z,3.33
2023-11-11T21:32:42.851Z,3.90
2023-11-11T21:35:11.317Z,4.63
2023-11-11T21:37:39.497Z,7.80
2023-11-11T21:40:11.569Z,6.18
2023-11-11T21:42:39.725Z,4.15
2023-11-11T21:45:08.185Z,5.93
2023-11-11T21:47:36.105Z,5.65
2023-11-11T21:50:06.420Z,4.75
2023-11-11T21:52:37.485Z,5.18
2023-11-11T21:55:06.638Z,4.07
2023-11-11T21:57:37.555Z,4.20
2023-11-11T22:00:10.246Z,6.00
2023-11-11T22:02:38.616Z,3.35
2023-11-11T22:05:08.502Z,4.75
2023-11-11T22:07:36.427Z,4.70
2023-11-11T22:10:06.526Z,3.85
2023-11-11T22:12:35.612Z,4.75
2023-11-11T22:15:03.564Z,6.47
2023-11-11T22:17:31.375Z,5.55
2023-11-11T22:19:59.191Z,5.70
2023-11-11T22:22:27.173Z,6.20
2023-11-11T22:24:55.362Z,3.80
2023-11-11T22:27:23.186Z,6.78
2023-11-11T22:29:53.398Z,5.13
2023-11-11T22:32:21.870Z,5.03
2023-11-11T22:34:49.845Z,6.80
2023-11-11T22:37:17.743Z,5.45
2023-11-11T22:39:46.327Z,4.88
2023-11-11T22:42:14.157Z,6.18
2023-11-11T22:44:42.653Z,7.40
2023-11-11T22:47:12.038Z,4.95
2023-11-11T22:49:41.105Z,4.63
2023-11-11T22:52:09.140Z,8.18
2023-11-11T22:54:36.867Z,6.00
2023-11-11T22:57:04.907Z,8.95
2023-11-11T22:59:33.069Z,6.93
2023-11-11T23:02:01.303Z,5.05
2023-11-11T23:04:31.050Z,6.38
2023-11-11T23:06:59.381Z,6.82
2023-11-11T23:09:28.119Z,6.45
2023-11-11T23:11:57.914Z,4.60
2023-11-11T23:14:25.929Z,9.82
2023-11-11T23:16:53.802Z,7.80
2023-11-11T23:19:21.758Z,4.65
2023-11-11T23:21:50.867Z,4.10
2023-11-11T23:24:18.828Z,6.53
2023-11-11T23:26:47.530Z,7.30
2023-11-11T23:29:15.324Z,5.88
2023-11-11T23:31:43.823Z,7.85
2023-11-11T23:34:12.280Z,4.38
2023-11-11T23:36:40.138Z,4.47
2023-11-11T23:39:09.257Z,5.22
2023-11-11T23:41:37.289Z,7.60
2023-11-11T23:44:05.590Z,6.32
2023-11-11T23:46:34.613Z,6.82
2023-11-11T23:49:02.541Z,6.05
2023-11-11T23:51:30.935Z,7.65
2023-11-11T23:53:59.050Z,6.60
2023-11-11T23:56:28.449Z,6.05
2023-11-11T23:58:56.168Z,8.32
